Austin, Texas
Traffic Map
Current Weather Conditions
Austin, Texas
Broken Clouds
Broken Clouds
76°
Feels Like: 76°
Wind Chill: 76° Ceiling: 800
Heat Index: 76° Visibility: 10mi
Dew Point: 73° Wind: 0mph
Humidity: 91% Direction: ° ()
Pressure: 29.88in Gusts: 0mph
Raw Report DataKATT 291051Z AUTO 00000KT 10SM BKN008 24/23 A2988 RMK AO2 SLP103 T02440228
Traffic Incident Summary
Active as of:
Severity:
Category:
InformationThere was an issue retrieving the traffic information for this location. Please try a different location or try again shortly.
Advertisements
Track Severe Weather on mobile